Time;durP1;ratioP1;P1;durP2;ratioP2;P2;SDS_P1;SDS_P2;PMS_P1;PMS_P2;Temp;Humidity;BMP_temperature;BMP_pressure;BME280_temperature;BME280_humidity;BME280_pressure;Samples;Min_cycle;Max_cycle;Signal;HPM_P1;HPM_P2
2024/03/12 00:00:23;;;;;;;56.67;36.53;;;8.10;94.40;;;;;;5051695;28;20032;-74
2024/03/12 00:02:50;;;;;;;59.95;34.58;;;8.10;94.30;;;;;;5054077;28;20032;-79
2024/03/12 00:05:19;;;;;;;54.28;34.25;;;8.10;94.30;;;;;;5051416;28;20112;-79
2024/03/12 00:07:49;;;;;;;56.58;33.97;;;8.10;94.40;;;;;;5045598;28;20017;-74
2024/03/12 00:10:19;;;;;;;57.45;34.13;;;8.10;94.50;;;;;;5052390;28;20165;-77
2024/03/12 00:12:49;;;;;;;53.60;33.53;;;8.10;94.60;;;;;;5054024;28;20028;-76
2024/03/12 00:15:24;;;;;;;56.13;33.75;;;8.10;94.70;;;;;;5053062;28;22567;-73
2024/03/12 00:17:53;;;;;;;59.40;34.33;;;8.10;94.80;;;;;;5054383;28;20550;-76
2024/03/12 00:20:24;;;;;;;56.08;34.03;;;8.10;95.00;;;;;;5052064;28;20056;-76
2024/03/12 00:22:50;;;;;;;58.45;33.15;;;8.00;95.20;;;;;;5051467;28;20502;-74
2024/03/12 00:25:19;;;;;;;58.03;34.15;;;8.00;95.20;;;;;;5051240;28;20104;-75
2024/03/12 00:27:45;;;;;;;64.38;35.55;;;8.00;95.40;;;;;;5050542;28;20025;-75
2024/03/12 00:30:11;;;;;;;62.03;35.63;;;7.90;95.70;;;;;;5054508;28;20527;-76
2024/03/12 00:32:38;;;;;;;59.78;35.10;;;8.00;96.00;;;;;;5052732;28;20086;-75
2024/03/12 00:35:05;;;;;;;62.05;34.80;;;7.90;96.00;;;;;;5051460;28;20356;-75
2024/03/12 00:37:31;;;;;;;64.53;35.35;;;7.90;96.20;;;;;;5056221;28;20401;-79
2024/03/12 00:39:57;;;;;;;59.88;35.50;;;7.90;96.20;;;;;;5054551;28;20064;-73
2024/03/12 00:42:23;;;;;;;59.17;35.22;;;7.90;96.20;;;;;;5056647;28;20048;-74
2024/03/12 00:44:49;;;;;;;62.08;34.30;;;7.90;96.20;;;;;;5047976;28;20473;-78
2024/03/12 00:47:16;;;;;;;57.25;33.35;;;7.90;96.20;;;;;;5050850;28;20058;-73
2024/03/12 00:49:41;;;;;;;64.22;34.88;;;7.90;96.20;;;;;;5052834;28;20099;-77
2024/03/12 00:52:07;;;;;;;68.15;35.47;;;7.90;96.20;;;;;;5056945;28;20477;-74
2024/03/12 00:54:35;;;;;;;65.00;34.30;;;7.90;96.30;;;;;;5056060;28;20362;-76
2024/03/12 00:57:02;;;;;;;61.00;35.17;;;7.90;96.20;;;;;;5060380;28;20444;-76
2024/03/12 00:59:29;;;;;;;64.20;34.22;;;7.90;96.30;;;;;;5058735;28;20029;-76
2024/03/12 01:01:55;;;;;;;61.53;33.55;;;7.80;96.30;;;;;;5057682;28;20133;-75
2024/03/12 01:04:21;;;;;;;56.25;33.72;;;7.80;96.40;;;;;;5055096;28;20086;-79
2024/03/12 01:06:49;;;;;;;63.13;34.72;;;7.90;96.40;;;;;;5062568;28;20030;-77
2024/03/12 01:09:17;;;;;;;61.00;34.78;;;7.80;96.40;;;;;;5058235;28;20142;-75
2024/03/12 01:11:43;;;;;;;54.33;32.03;;;7.80;96.30;;;;;;5058180;28;20033;-78
2024/03/12 01:14:09;;;;;;;63.10;34.25;;;7.90;96.30;;;;;;5058493;28;20036;-78
2024/03/12 01:16:35;;;;;;;58.22;32.53;;;7.90;96.30;;;;;;5053804;28;20060;-76
2024/03/12 01:19:01;;;;;;;50.83;31.98;;;7.90;96.20;;;;;;5062210;28;20032;-78
2024/03/12 01:21:27;;;;;;;51.72;30.50;;;7.90;96.20;;;;;;5059291;28;20473;-74
2024/03/12 01:23:54;;;;;;;57.00;33.17;;;7.80;96.20;;;;;;5059895;28;20035;-75
2024/03/12 01:26:20;;;;;;;56.30;32.35;;;7.90;96.20;;;;;;5052546;28;20124;-75
2024/03/12 01:28:46;;;;;;;55.63;33.15;;;7.90;96.30;;;;;;5054735;28;20187;-75
2024/03/12 01:31:11;;;;;;;53.60;33.50;;;7.90;96.10;;;;;;5057491;28;20454;-76
2024/03/12 01:33:38;;;;;;;59.30;33.13;;;7.90;96.20;;;;;;5060307;28;20521;-75
2024/03/12 01:36:18;;;;;;;58.10;35.10;;;7.80;96.20;;;;;;5055295;28;20064;-75
2024/03/12 01:38:48;;;;;;;57.78;33.55;;;7.90;96.20;;;;;;5055810;28;20058;-76
2024/03/12 01:41:15;;;;;;;59.05;33.35;;;7.90;96.30;;;;;;5057946;28;20033;-74
2024/03/12 01:43:42;;;;;;;55.40;34.08;;;7.90;96.30;;;;;;5056249;28;20037;-75
2024/03/12 01:46:10;;;;;;;53.65;33.75;;;7.90;96.30;;;;;;5051779;28;20812;-75
2024/03/12 01:48:38;;;;;;;56.22;34.25;;;7.90;96.30;;;;;;5058901;28;20020;-75
2024/03/12 01:51:05;;;;;;;59.88;34.13;;;7.90;96.40;;;;;;5058105;28;20037;-76
2024/03/12 01:53:33;;;;;;;64.40;34.45;;;7.90;96.30;;;;;;5059079;28;20033;-74
2024/03/12 01:56:00;;;;;;;58.90;32.97;;;7.90;96.20;;;;;;5053897;28;20044;-75
2024/03/12 01:58:26;;;;;;;57.63;33.53;;;7.90;96.20;;;;;;5060742;28;20037;-77
2024/03/12 02:00:52;;;;;;;61.95;35.97;;;8.00;96.20;;;;;;5053841;28;20529;-75
2024/03/12 02:03:18;;;;;;;57.67;35.08;;;7.90;96.10;;;;;;5058650;28;20027;-75
2024/03/12 02:05:46;;;;;;;56.75;33.92;;;8.00;96.20;;;;;;5057054;28;20127;-75
2024/03/12 02:08:14;;;;;;;61.95;36.28;;;8.00;96.10;;;;;;5057490;28;20016;-74
2024/03/12 02:10:40;;;;;;;60.25;35.33;;;7.90;96.00;;;;;;5056523;28;20039;-77
2024/03/12 02:13:05;;;;;;;62.45;35.78;;;7.90;96.00;;;;;;5059767;28;20496;-75
2024/03/12 02:15:33;;;;;;;60.13;35.75;;;7.90;96.00;;;;;;5056413;28;20109;-75
2024/03/12 02:17:59;;;;;;;57.78;34.63;;;7.80;96.00;;;;;;5056986;28;20380;-76
2024/03/12 02:20:26;;;;;;;56.35;35.47;;;7.90;96.10;;;;;;5059666;28;20051;-78
2024/03/12 02:22:55;;;;;;;57.13;34.42;;;7.80;96.10;;;;;;5055641;28;20028;-77
2024/03/12 02:25:21;;;;;;;57.30;33.67;;;7.80;96.10;;;;;;5058102;28;20085;-75
2024/03/12 02:27:47;;;;;;;60.00;35.75;;;7.80;96.20;;;;;;5055294;28;20058;-76
2024/03/12 02:30:13;;;;;;;59.63;34.70;;;7.80;96.20;;;;;;5058195;28;20029;-78
2024/03/12 02:32:39;;;;;;;58.22;34.83;;;7.80;96.20;;;;;;5057552;28;20029;-78
2024/03/12 02:35:10;;;;;;;60.70;35.67;;;7.80;96.30;;;;;;5051576;28;20039;-77
2024/03/12 02:37:35;;;;;;;66.30;36.90;;;7.80;96.30;;;;;;5052581;28;20016;-74
2024/03/12 02:40:01;;;;;;;65.57;36.53;;;7.90;96.30;;;;;;5051477;28;20037;-77
2024/03/12 02:42:28;;;;;;;63.83;36.28;;;7.80;96.20;;;;;;5052012;28;21637;-76
2024/03/12 02:44:54;;;;;;;63.90;35.22;;;7.80;96.20;;;;;;5054214;28;20048;-77
2024/03/12 02:47:20;;;;;;;53.00;34.33;;;7.80;96.20;;;;;;5053887;28;20016;-78
2024/03/12 02:49:46;;;;;;;57.90;34.25;;;7.80;96.20;;;;;;5058165;28;20334;-77
2024/03/12 02:52:12;;;;;;;64.53;36.90;;;7.80;96.10;;;;;;5054205;28;20029;-75
2024/03/12 02:54:38;;;;;;;57.42;35.85;;;7.80;96.20;;;;;;5055527;28;20087;-74
2024/03/12 02:57:04;;;;;;;54.08;33.70;;;7.70;96.00;;;;;;5057316;28;20370;-74
2024/03/12 02:59:30;;;;;;;57.13;33.75;;;7.70;96.00;;;;;;5069688;28;20086;-79
2024/03/12 03:01:56;;;;;;;54.03;33.25;;;7.60;96.00;;;;;;5056908;28;20153;-74
2024/03/12 03:04:22;;;;;;;55.22;33.45;;;7.60;96.10;;;;;;5054177;28;20086;-76
2024/03/12 03:07:00;;;;;;;57.95;34.28;;;7.60;96.00;;;;;;5060437;28;20032;-78
2024/03/12 03:09:26;;;;;;;55.50;34.70;;;7.60;96.10;;;;;;5050427;28;20029;-78
2024/03/12 03:11:53;;;;;;;54.53;34.17;;;7.50;96.10;;;;;;5052502;28;20048;-75
2024/03/12 03:14:18;;;;;;;54.08;33.47;;;7.50;96.10;;;;;;5050558;28;20032;-76
2024/03/12 03:16:44;;;;;;;54.75;32.40;;;7.40;96.30;;;;;;5056533;28;20036;-77
2024/03/12 03:19:10;;;;;;;55.00;33.38;;;7.40;96.30;;;;;;5052030;28;20017;-77
2024/03/12 03:21:36;;;;;;;53.15;33.38;;;7.40;96.30;;;;;;5052406;28;20036;-77
2024/03/12 03:24:02;;;;;;;68.00;36.03;;;7.40;96.20;;;;;;5053683;28;20039;-78
2024/03/12 03:26:27;;;;;;;58.30;34.80;;;7.40;96.30;;;;;;5054362;28;20055;-75
2024/03/12 03:28:53;;;;;;;61.92;35.30;;;7.40;96.30;;;;;;5056814;28;20478;-78
2024/03/12 03:31:19;;;;;;;58.25;34.65;;;7.40;96.20;;;;;;5050023;28;20068;-76
2024/03/12 03:33:47;;;;;;;56.75;35.97;;;7.40;96.20;;;;;;5049927;28;20074;-74
2024/03/12 03:36:14;;;;;;;59.47;35.25;;;7.40;96.20;;;;;;5053976;28;20028;-76
2024/03/12 03:38:42;;;;;;;58.90;33.55;;;7.40;96.20;;;;;;5054807;28;20344;-75
2024/03/12 03:41:09;;;;;;;53.15;34.67;;;7.40;96.20;;;;;;5052531;28;20430;-76
2024/03/12 03:43:35;;;;;;;56.85;35.22;;;7.40;96.20;;;;;;5054813;28;20046;-75
2024/03/12 03:46:03;;;;;;;59.05;36.15;;;7.40;96.20;;;;;;5052689;28;20024;-75
2024/03/12 03:48:29;;;;;;;58.08;35.90;;;7.40;96.30;;;;;;5049559;28;20037;-78
2024/03/12 03:50:55;;;;;;;57.28;33.85;;;7.50;96.20;;;;;;5039931;28;20093;-76
2024/03/12 03:53:21;;;;;;;55.55;36.42;;;7.50;96.10;;;;;;5055707;28;20036;-73
2024/03/12 03:55:47;;;;;;;57.22;35.45;;;7.50;96.00;;;;;;5052917;28;20041;-75
2024/03/12 03:58:13;;;;;;;54.85;36.20;;;7.40;96.00;;;;;;5055860;28;20090;-74
2024/03/12 04:00:39;;;;;;;55.05;34.45;;;7.40;95.80;;;;;;5042341;28;20024;-76
2024/03/12 04:03:06;;;;;;;55.35;34.13;;;7.40;95.90;;;;;;5056357;28;20048;-79
2024/03/12 04:05:33;;;;;;;55.60;35.70;;;7.40;95.90;;;;;;5054572;28;20454;-80
2024/03/12 04:08:06;;;;;;;53.75;34.28;;;7.40;95.90;;;;;;5053787;28;20016;-75
2024/03/12 04:10:31;;;;;;;58.13;36.10;;;7.40;95.90;;;;;;5049685;28;20103;-78
2024/03/12 04:12:57;;;;;;;64.20;36.50;;;7.40;95.80;;;;;;5055912;28;20028;-74
2024/03/12 04:15:23;;;;;;;56.55;34.53;;;7.40;95.90;;;;;;5052617;28;20443;-76
2024/03/12 04:17:49;;;;;;;57.00;35.20;;;7.40;95.80;;;;;;5055279;28;20488;-77
2024/03/12 04:20:16;;;;;;;57.47;33.95;;;7.40;95.80;;;;;;5055394;28;20043;-74
2024/03/12 04:22:44;;;;;;;61.90;36.08;;;7.50;95.90;;;;;;5053175;28;20351;-77
2024/03/12 04:25:12;;;;;;;57.40;35.15;;;7.40;95.70;;;;;;5054657;28;20028;-78
2024/03/12 04:27:38;;;;;;;55.65;35.80;;;7.40;95.60;;;;;;5051328;28;20012;-76
2024/03/12 04:30:05;;;;;;;56.83;35.20;;;7.40;95.50;;;;;;5053951;28;20037;-76
2024/03/12 04:32:31;;;;;;;54.30;35.95;;;7.40;95.50;;;;;;5056670;28;20461;-77
2024/03/12 04:34:57;;;;;;;49.60;32.53;;;7.30;95.50;;;;;;5054601;28;20037;-74
2024/03/12 04:37:23;;;;;;;51.05;32.47;;;7.30;95.40;;;;;;5055727;28;20905;-75
2024/03/12 04:39:49;;;;;;;54.65;33.47;;;7.20;95.50;;;;;;5056230;28;20416;-76
2024/03/12 04:42:14;;;;;;;53.03;31.80;;;7.20;95.50;;;;;;5057158;28;20098;-73
2024/03/12 04:44:42;;;;;;;56.10;32.65;;;7.30;95.60;;;;;;5052519;28;20413;-75
2024/03/12 04:47:09;;;;;;;53.13;34.63;;;7.30;95.60;;;;;;5058318;28;20481;-74
2024/03/12 04:49:37;;;;;;;53.50;34.25;;;7.30;95.60;;;;;;5051267;28;20048;-75
2024/03/12 04:52:03;;;;;;;56.38;35.90;;;7.30;95.60;;;;;;5053671;28;20037;-79
2024/03/12 04:54:29;;;;;;;56.45;35.22;;;7.40;95.60;;;;;;5050680;28;20125;-74
2024/03/12 04:56:56;;;;;;;58.08;35.75;;;7.40;95.50;;;;;;5051191;28;20029;-75
2024/03/12 04:59:23;;;;;;;50.88;33.65;;;7.40;95.40;;;;;;5055606;28;20079;-77
2024/03/12 05:01:49;;;;;;;54.03;34.63;;;7.40;95.40;;;;;;5056996;28;20025;-76
2024/03/12 05:04:16;;;;;;;57.30;34.63;;;7.40;95.30;;;;;;5053260;28;20415;-75
2024/03/12 05:06:43;;;;;;;54.42;34.65;;;7.40;95.20;;;;;;5057200;28;20028;-80
2024/03/12 05:09:09;;;;;;;55.17;35.10;;;7.40;95.10;;;;;;5056275;28;20017;-77
2024/03/12 05:11:36;;;;;;;57.50;35.58;;;7.50;95.10;;;;;;5047399;28;20412;-76
2024/03/12 05:14:03;;;;;;;58.83;37.15;;;7.40;95.10;;;;;;5056532;28;20074;-77
2024/03/12 05:16:29;;;;;;;53.22;34.25;;;7.50;95.20;;;;;;5055353;28;20349;-75
2024/03/12 05:18:55;;;;;;;50.10;34.15;;;7.40;95.10;;;;;;5050499;28;20028;-75
2024/03/12 05:21:26;;;;;;;50.80;34.63;;;7.50;95.20;;;;;;5056929;28;20524;-74
2024/03/12 05:23:55;;;;;;;59.97;36.75;;;7.40;95.10;;;;;;5058475;28;20016;-76
2024/03/12 05:26:26;;;;;;;58.17;36.25;;;7.50;95.20;;;;;;5053591;28;20100;-76
2024/03/12 05:28:58;;;;;;;57.92;37.90;;;7.40;95.10;;;;;;5059285;28;20021;-77
2024/03/12 05:31:37;;;;;;;59.42;36.60;;;7.40;95.00;;;;;;5052443;28;20076;-79
2024/03/12 05:34:03;;;;;;;56.33;35.95;;;7.40;95.00;;;;;;5050566;28;20127;-79
2024/03/12 05:36:30;;;;;;;58.97;37.90;;;7.40;95.00;;;;;;5050142;28;20112;-76
2024/03/12 05:39:06;;;;;;;56.55;35.88;;;7.40;95.10;;;;;;5049711;28;20025;-76
2024/03/12 05:41:48;;;;;;;58.28;37.88;;;7.40;95.10;;;;;;5049118;28;20143;-76
2024/03/12 05:49:43;;;;;;;55.97;35.08;;;7.50;95.00;;;;;;5056890;28;19947;-76
2024/03/12 05:52:09;;;;;;;64.18;37.40;;;7.40;94.90;;;;;;5053699;28;20460;-74
2024/03/12 05:54:35;;;;;;;58.13;36.15;;;7.40;94.90;;;;;;5052919;28;20036;-76
2024/03/12 05:57:01;;;;;;;54.05;35.90;;;7.50;94.90;;;;;;5050853;28;20641;-74
2024/03/12 05:59:27;;;;;;;53.47;35.78;;;7.40;94.80;;;;;;5052157;28;20106;-74
2024/03/12 06:01:52;;;;;;;65.97;39.05;;;7.40;94.80;;;;;;5054343;28;20416;-74
2024/03/12 06:04:18;;;;;;;60.15;39.15;;;7.40;94.90;;;;;;5052917;28;20067;-78
2024/03/12 06:06:46;;;;;;;58.78;36.72;;;7.40;94.80;;;;;;5058812;28;20083;-78
2024/03/12 06:09:12;;;;;;;62.38;40.20;;;7.40;94.90;;;;;;5052046;28;20512;-74
2024/03/12 06:11:37;;;;;;;60.80;35.67;;;7.40;94.80;;;;;;5053325;28;20024;-77
2024/03/12 06:14:06;;;;;;;55.95;37.15;;;7.50;95.00;;;;;;5053141;28;20051;-77
2024/03/12 06:16:32;;;;;;;58.10;38.35;;;7.40;94.90;;;;;;5057082;28;21094;-75
2024/03/12 06:18:58;;;;;;;59.13;37.53;;;7.50;95.00;;;;;;5056896;28;20020;-75
2024/03/12 06:21:24;;;;;;;60.10;38.58;;;7.50;95.00;;;;;;5055303;28;20471;-77
2024/03/12 06:23:49;;;;;;;60.90;37.97;;;7.50;95.00;;;;;;5055469;28;20028;-74
2024/03/12 06:26:15;;;;;;;64.57;38.92;;;7.50;94.90;;;;;;5055824;28;20021;-74
2024/03/12 06:28:41;;;;;;;61.85;39.08;;;7.50;95.00;;;;;;5058390;28;20025;-74
2024/03/12 06:31:07;;;;;;;63.67;39.03;;;7.60;95.00;;;;;;5053192;28;20034;-77
2024/03/12 06:33:33;;;;;;;59.72;38.35;;;7.50;95.00;;;;;;5052000;28;20044;-76
2024/03/12 06:35:58;;;;;;;60.45;39.17;;;7.60;95.00;;;;;;5051521;28;20189;-78
2024/03/12 06:38:24;;;;;;;61.25;40.33;;;7.60;95.00;;;;;;5059223;28;20020;-82
2024/03/12 06:40:50;;;;;;;60.92;38.28;;;7.60;95.00;;;;;;5055054;28;20061;-79
2024/03/12 06:43:17;;;;;;;66.13;40.72;;;7.60;95.10;;;;;;5058405;28;20044;-84
2024/03/12 06:45:44;;;;;;;62.78;39.78;;;7.60;95.00;;;;;;5046780;28;20128;-82
2024/03/12 06:48:10;;;;;;;67.25;40.55;;;7.60;95.00;;;;;;5049721;28;20407;-80
2024/03/12 06:50:36;;;;;;;61.58;39.83;;;7.60;95.00;;;;;;5051554;28;20472;-83
2024/03/12 06:53:05;;;;;;;67.38;41.78;;;7.60;95.00;;;;;;5056413;28;20032;-84
2024/03/12 06:55:31;;;;;;;61.97;39.42;;;7.60;95.00;;;;;;5050277;28;20033;-84
2024/03/12 06:58:04;;;;;;;62.88;42.40;;;7.70;95.00;;;;;;5058454;28;20510;-85
2024/03/12 07:00:36;;;;;;;66.65;43.10;;;7.70;95.00;;;;;;5052096;28;20140;-85
2024/03/12 07:03:05;;;;;;;64.10;42.22;;;7.70;95.00;;;;;;5050306;28;20024;-84
2024/03/12 07:05:36;;;;;;;61.13;41.55;;;7.80;95.00;;;;;;5054397;28;20040;-82
2024/03/12 07:08:02;;;;;;;63.95;41.30;;;7.80;94.90;;;;;;5057290;28;20025;-80
2024/03/12 07:10:29;;;;;;;63.90;40.70;;;7.80;94.90;;;;;;5054997;28;20043;-85
2024/03/12 07:12:58;;;;;;;65.13;40.58;;;7.90;94.90;;;;;;5057373;28;20028;-81
2024/03/12 07:15:24;;;;;;;65.40;41.47;;;7.90;94.80;;;;;;5056916;28;20060;-82
2024/03/12 07:17:52;;;;;;;69.72;44.55;;;7.90;94.80;;;;;;5057393;28;20039;-83
2024/03/12 07:20:20;;;;;;;64.45;41.78;;;8.00;94.70;;;;;;5051535;28;20476;-79
2024/03/12 07:22:46;;;;;;;67.13;41.25;;;8.00;94.70;;;;;;5055412;28;20032;-84
2024/03/12 07:25:11;;;;;;;63.38;39.92;;;8.10;94.70;;;;;;5054361;28;20091;-82
2024/03/12 07:27:38;;;;;;;65.90;41.28;;;8.00;94.50;;;;;;5040585;28;20342;-79
2024/03/12 07:30:12;;;;;;;69.82;42.10;;;8.10;94.50;;;;;;5051315;28;20091;-81
2024/03/12 07:32:39;;;;;;;66.50;41.13;;;8.10;94.50;;;;;;5054399;28;20032;-80
2024/03/12 07:35:05;;;;;;;61.55;40.00;;;8.10;94.40;;;;;;5051655;28;20040;-82
2024/03/12 07:37:36;;;;;;;67.25;41.20;;;8.10;94.40;;;;;;5048852;28;20390;-82
2024/03/12 07:40:03;;;;;;;64.90;41.72;;;8.20;94.30;;;;;;5056720;28;20417;-83
2024/03/12 07:42:28;;;;;;;62.78;39.80;;;8.20;94.30;;;;;;5053804;28;20132;-80
2024/03/12 07:44:54;;;;;;;63.35;41.03;;;8.20;94.20;;;;;;5054386;28;20494;-83
2024/03/12 07:47:20;;;;;;;59.55;40.10;;;8.30;94.20;;;;;;5049130;28;20750;-84
2024/03/12 07:49:46;;;;;;;64.47;41.58;;;8.30;94.10;;;;;;5055602;28;20043;-81
2024/03/12 07:52:13;;;;;;;62.17;39.70;;;8.40;93.90;;;;;;5055578;28;20393;-82
2024/03/12 07:54:39;;;;;;;63.67;40.22;;;8.40;93.90;;;;;;5052613;28;20307;-81
2024/03/12 07:57:05;;;;;;;61.72;39.17;;;8.40;93.90;;;;;;5051313;28;20038;-81
2024/03/12 07:59:31;;;;;;;58.45;38.25;;;8.50;93.80;;;;;;5052445;28;20025;-84
2024/03/12 08:01:57;;;;;;;62.95;40.03;;;8.50;93.70;;;;;;5057972;28;20048;-81
2024/03/12 08:04:26;;;;;;;70.20;45.20;;;8.50;93.70;;;;;;5054220;28;20016;-78
2024/03/12 08:06:53;;;;;;;70.10;43.63;;;8.60;93.60;;;;;;5051830;28;20112;-80
2024/03/12 08:09:18;;;;;;;69.63;43.25;;;8.60;93.60;;;;;;5052670;28;20024;-83
2024/03/12 08:11:48;;;;;;;70.50;45.50;;;8.60;93.50;;;;;;5054425;28;20033;-76
2024/03/12 08:14:15;;;;;;;65.85;41.40;;;8.60;93.40;;;;;;5049808;28;20063;-80
2024/03/12 08:16:41;;;;;;;63.53;39.65;;;8.70;93.30;;;;;;5052594;28;20049;-78
2024/03/12 08:19:07;;;;;;;63.80;41.28;;;8.80;93.20;;;;;;5050591;28;20060;-78
2024/03/12 08:21:33;;;;;;;61.72;39.53;;;8.80;93.10;;;;;;5053685;28;20094;-78
2024/03/12 08:23:59;;;;;;;64.43;41.28;;;8.90;93.10;;;;;;5057118;28;20044;-81
2024/03/12 08:26:26;;;;;;;63.30;43.08;;;8.90;93.00;;;;;;5052058;28;20030;-81
2024/03/12 08:28:53;;;;;;;70.35;42.72;;;9.00;93.10;;;;;;5056436;28;20401;-81
2024/03/12 08:31:19;;;;;;;60.05;39.00;;;9.00;93.00;;;;;;5047474;28;20079;-80
2024/03/12 08:33:45;;;;;;;60.35;39.75;;;9.00;93.00;;;;;;5069633;28;20382;-81
2024/03/12 08:36:10;;;;;;;62.80;40.28;;;9.00;92.80;;;;;;5048460;28;20039;-82
2024/03/12 08:38:36;;;;;;;63.80;41.85;;;9.10;92.70;;;;;;5052759;28;20031;-80
2024/03/12 08:41:02;;;;;;;68.30;42.85;;;9.20;92.60;;;;;;5043206;28;20029;-82
2024/03/12 08:43:28;;;;;;;66.40;42.95;;;9.10;92.50;;;;;;5054747;28;20049;-82
2024/03/12 08:45:54;;;;;;;65.65;42.28;;;9.20;92.40;;;;;;5052633;28;20449;-81
2024/03/12 08:48:21;;;;;;;69.13;42.85;;;9.20;92.30;;;;;;5055446;28;20069;-82
2024/03/12 08:50:47;;;;;;;76.30;42.70;;;9.20;92.40;;;;;;5054803;28;20485;-78
2024/03/12 08:53:12;;;;;;;68.00;42.45;;;9.30;92.40;;;;;;5057048;28;20025;-82
2024/03/12 08:55:38;;;;;;;74.85;44.05;;;9.30;92.40;;;;;;5053862;28;20032;-82
2024/03/12 08:58:07;;;;;;;65.93;42.90;;;9.40;92.50;;;;;;5056493;28;20469;-80
2024/03/12 09:00:33;;;;;;;71.07;44.55;;;9.30;92.40;;;;;;5051436;28;20040;-81
2024/03/12 09:03:01;;;;;;;71.85;44.40;;;9.40;92.70;;;;;;5057702;28;20024;-82
2024/03/12 09:05:27;;;;;;;76.90;44.95;;;9.50;92.70;;;;;;5053980;28;20041;-78
2024/03/12 09:07:53;;;;;;;72.78;45.17;;;9.60;92.70;;;;;;5056829;28;20038;-79
2024/03/12 09:10:18;;;;;;;71.57;46.22;;;9.70;92.60;;;;;;5056842;28;20044;-82
2024/03/12 09:12:44;;;;;;;71.80;44.10;;;9.90;92.40;;;;;;5058818;28;20037;-81
2024/03/12 09:15:10;;;;;;;69.68;44.83;;;10.00;92.30;;;;;;5057034;28;20115;-82
2024/03/12 09:17:37;;;;;;;75.85;46.15;;;10.10;92.00;;;;;;5056968;28;20047;-79
2024/03/12 09:20:10;;;;;;;76.75;47.50;;;10.10;91.50;;;;;;5061168;28;20029;-79
2024/03/12 09:22:36;;;;;;;72.10;45.47;;;10.10;91.70;;;;;;5054691;28;20025;-78
2024/03/12 09:25:02;;;;;;;68.40;45.20;;;10.10;91.80;;;;;;5056124;28;20032;-78
2024/03/12 09:27:28;;;;;;;70.47;46.13;;;10.10;91.60;;;;;;5058787;28;20368;-78
2024/03/12 09:29:56;;;;;;;69.60;43.88;;;10.20;91.60;;;;;;5061747;28;20033;-81
2024/03/12 09:32:22;;;;;;;71.60;45.03;;;10.40;91.60;;;;;;5054534;28;20476;-84
2024/03/12 09:34:48;;;;;;;71.63;45.78;;;10.50;91.10;;;;;;5061188;28;20086;-79
2024/03/12 09:37:15;;;;;;;70.45;44.33;;;10.60;91.20;;;;;;5055581;28;20033;-82
2024/03/12 09:39:44;;;;;;;71.22;43.65;;;10.70;91.00;;;;;;5054428;28;20050;-81
2024/03/12 09:42:11;;;;;;;70.60;42.40;;;10.80;90.50;;;;;;5059354;28;20036;-77
2024/03/12 09:44:37;;;;;;;69.22;43.03;;;10.90;90.10;;;;;;5052865;28;20045;-82
2024/03/12 09:47:07;;;;;;;68.88;43.08;;;11.00;89.80;;;;;;5057781;28;20371;-79
2024/03/12 09:49:37;;;;;;;70.82;45.70;;;11.00;89.70;;;;;;5055459;28;20361;-81
2024/03/12 09:52:05;;;;;;;70.03;44.47;;;11.00;89.80;;;;;;5050279;28;20081;-77
2024/03/12 09:54:35;;;;;;;69.07;44.53;;;11.10;89.70;;;;;;5054278;28;20420;-79
2024/03/12 09:57:02;;;;;;;69.68;44.38;;;11.20;89.80;;;;;;5055980;28;20047;-80
2024/03/12 09:59:28;;;;;;;67.55;44.15;;;11.20;89.50;;;;;;5054364;28;20028;-80
2024/03/12 10:01:54;;;;;;;66.15;42.50;;;11.40;89.40;;;;;;5050594;28;20563;-81
2024/03/12 10:04:20;;;;;;;67.05;41.75;;;11.20;88.70;;;;;;5052863;28;20536;-79
2024/03/12 10:06:45;;;;;;;70.65;44.72;;;11.20;88.90;;;;;;5054862;28;20035;-80
2024/03/12 10:09:18;;;;;;;67.15;42.58;;;11.20;89.00;;;;;;5051313;28;20104;-82
2024/03/12 10:11:44;;;;;;;72.18;45.80;;;11.10;89.20;;;;;;5053763;28;20037;-76
2024/03/12 10:14:12;;;;;;;74.07;44.72;;;11.10;89.70;;;;;;5054176;28;20572;-81
2024/03/12 10:16:38;;;;;;;70.30;43.47;;;11.30;90.00;;;;;;5055512;28;20024;-75
2024/03/12 10:19:14;;;;;;;63.13;41.67;;;11.40;89.50;;;;;;5061261;28;20063;-77
2024/03/12 10:21:40;;;;;;;61.75;40.90;;;11.40;89.10;;;;;;5053517;28;20379;-79
2024/03/12 10:24:13;;;;;;;59.58;39.97;;;11.50;88.80;;;;;;5053714;28;20028;-80
2024/03/12 10:26:40;;;;;;;74.43;43.75;;;11.50;88.80;;;;;;5055256;28;20043;-82
2024/03/12 10:29:11;;;;;;;60.05;38.65;;;11.60;88.80;;;;;;5061583;28;20292;-78
2024/03/12 10:31:39;;;;;;;59.33;39.35;;;11.50;88.60;;;;;;5055968;28;20028;-80
2024/03/12 10:34:17;;;;;;;53.75;36.17;;;11.50;88.80;;;;;;5057298;28;20346;-81
2024/03/12 10:36:44;;;;;;;55.20;37.53;;;11.50;88.70;;;;;;5053955;28;20577;-79
2024/03/12 10:39:28;;;;;;;55.58;37.15;;;11.40;88.70;;;;;;5056811;28;20417;-80
2024/03/12 10:42:01;;;;;;;49.28;33.97;;;11.30;89.10;;;;;;5043543;28;20383;-78
2024/03/12 10:44:28;;;;;;;54.47;36.42;;;11.20;89.20;;;;;;5054339;28;20500;-81
2024/03/12 10:46:58;;;;;;;48.78;33.92;;;11.20;89.30;;;;;;5048614;28;20052;-81
2024/03/12 10:49:24;;;;;;;50.70;34.13;;;11.20;89.20;;;;;;5052850;28;20044;-79
2024/03/12 10:51:53;;;;;;;50.22;34.88;;;11.20;89.10;;;;;;5055709;28;20032;-78
2024/03/12 10:54:22;;;;;;;51.90;34.33;;;11.20;89.00;;;;;;5056487;28;20028;-77
2024/03/12 10:56:50;;;;;;;52.47;35.53;;;11.20;88.90;;;;;;5051369;28;20033;-77
2024/03/12 10:59:16;;;;;;;61.60;36.65;;;11.10;89.00;;;;;;5050822;28;20016;-79
2024/03/12 11:01:47;;;;;;;58.83;37.22;;;11.00;89.50;;;;;;5051575;28;20515;-79
2024/03/12 11:04:14;;;;;;;50.78;34.13;;;10.90;90.10;;;;;;5054500;28;20055;-78
2024/03/12 11:06:40;;;;;;;51.65;34.13;;;10.80;90.50;;;;;;5058054;28;20024;-78
2024/03/12 11:09:12;;;;;;;47.90;34.33;;;10.90;90.90;;;;;;5056201;28;20039;-76
2024/03/12 11:11:39;;;;;;;49.70;32.88;;;10.90;91.00;;;;;;5047047;28;20024;-81
2024/03/12 11:14:07;;;;;;;45.65;31.13;;;11.00;91.00;;;;;;5054203;28;20052;-76
2024/03/12 11:16:34;;;;;;;43.00;29.75;;;11.10;91.10;;;;;;5053420;28;20142;-76
2024/03/12 11:19:18;;;;;;;44.80;30.70;;;11.10;91.00;;;;;;5055150;28;20040;-78
2024/03/12 11:21:46;;;;;;;39.03;26.90;;;11.20;91.00;;;;;;5055044;28;20060;-79
2024/03/12 11:24:11;;;;;;;44.72;28.75;;;11.30;91.00;;;;;;5053850;28;20052;-77
2024/03/12 11:26:40;;;;;;;43.47;28.63;;;11.30;91.00;;;;;;5048756;28;20569;-77
2024/03/12 11:29:07;;;;;;;45.72;28.38;;;11.30;90.80;;;;;;5052443;28;20456;-79
2024/03/12 11:31:39;;;;;;;41.70;27.83;;;11.20;91.00;;;;;;5051965;28;20044;-78
2024/03/12 11:34:05;;;;;;;39.70;28.50;;;11.20;91.40;;;;;;5051006;28;20048;-77
2024/03/12 11:36:40;;;;;;;46.25;30.98;;;11.10;91.60;;;;;;5039079;28;20029;-76
2024/03/12 11:39:12;;;;;;;37.60;25.98;;;11.10;91.60;;;;;;5043692;28;20025;-79
2024/03/12 11:42:08;;;;;;;38.65;25.23;;;11.10;91.80;;;;;;5042830;28;20041;-80
2024/03/12 11:44:49;;;;;;;;;;;11.10;92.00;;;;;;5051393;28;20112;-76
2024/03/12 11:47:34;;;;;;;35.70;23.77;;;11.10;91.90;;;;;;5047924;28;19917;-76
2024/03/12 11:50:07;;;;;;;36.20;22.67;;;11.10;91.80;;;;;;5048694;28;20036;-77
2024/03/12 11:52:34;;;;;;;32.30;22.73;;;11.10;91.90;;;;;;5046705;28;20123;-77
2024/03/12 11:55:03;;;;;;;31.77;20.60;;;11.10;91.70;;;;;;5049941;28;20469;-77
2024/03/12 11:57:30;;;;;;;33.53;21.45;;;11.20;91.60;;;;;;5048900;28;20927;-80
2024/03/12 11:59:57;;;;;;;34.30;22.40;;;11.20;91.50;;;;;;5047354;28;21112;-76
2024/03/12 12:02:23;;;;;;;30.13;21.27;;;11.20;91.70;;;;;;5046427;28;20023;-76
2024/03/12 12:04:53;;;;;;;30.15;20.20;;;11.20;91.60;;;;;;5041678;28;20131;-80
2024/03/12 12:07:27;;;;;;;32.22;20.85;;;11.20;91.50;;;;;;5043750;28;20068;-76
2024/03/12 12:09:53;;;;;;;31.77;20.98;;;11.20;91.50;;;;;;5048529;28;20048;-76
2024/03/12 12:12:19;;;;;;;27.90;19.63;;;11.40;91.60;;;;;;5043688;28;20175;-76
2024/03/12 12:14:47;;;;;;;29.55;18.40;;;11.40;91.40;;;;;;5045357;28;20056;-80
2024/03/12 12:17:21;;;;;;;28.95;19.45;;;11.40;91.20;;;;;;5043897;28;20083;-76
2024/03/12 12:20:04;;;;;;;27.30;19.23;;;11.30;91.30;;;;;;5053175;28;20039;-79
2024/03/12 12:22:33;;;;;;;24.35;18.42;;;11.20;91.20;;;;;;5053898;28;20060;-76
2024/03/12 12:25:01;;;;;;;25.67;18.80;;;11.20;91.50;;;;;;5046428;28;20357;-80
2024/03/12 12:27:28;;;;;;;25.80;16.50;;;11.10;91.70;;;;;;5052696;28;20025;-78
2024/03/12 12:29:55;;;;;;;24.98;18.13;;;11.00;92.00;;;;;;5051841;28;20043;-76
2024/03/12 12:32:22;;;;;;;23.20;16.70;;;11.10;92.30;;;;;;5050675;28;20033;-76
2024/03/12 12:34:48;;;;;;;21.30;14.23;;;11.10;92.20;;;;;;5051609;28;20037;-78
2024/03/12 12:37:14;;;;;;;19.50;13.63;;;11.10;92.30;;;;;;5051903;28;20498;-76
2024/03/12 12:39:40;;;;;;;19.67;14.20;;;11.00;92.10;;;;;;5055534;28;20124;-78
2024/03/12 12:42:07;;;;;;;17.42;12.82;;;11.10;92.10;;;;;;5054291;28;20041;-80